createdAt,value
2017-09-16T00:00:11.403Z,2.42
2017-09-16T00:02:38.907Z,2.77
2017-09-16T00:05:06.703Z,3.67
2017-09-16T00:07:34.247Z,2.40
2017-09-16T00:10:02.519Z,2.40
2017-09-16T00:12:30.331Z,2.45
2017-09-16T00:14:57.892Z,3.03
2017-09-16T00:17:25.383Z,2.75
2017-09-16T00:19:53.409Z,3.03
2017-09-16T00:22:20.944Z,3.47
2017-09-16T00:24:49.368Z,3.30
2017-09-16T00:27:16.901Z,3.83
2017-09-16T00:29:44.774Z,3.30
2017-09-16T00:32:12.423Z,3.78
2017-09-16T00:34:39.968Z,3.70
2017-09-16T00:37:09.159Z,4.17
2017-09-16T00:39:36.719Z,3.70
2017-09-16T00:42:05.026Z,3.00
2017-09-16T00:44:33.680Z,3.95
2017-09-16T00:47:01.388Z,3.57
2017-09-16T00:49:28.918Z,2.87
2017-09-16T00:51:56.423Z,2.70
2017-09-16T00:54:27.434Z,2.90
2017-09-16T00:56:54.938Z,2.90
2017-09-16T00:59:23.715Z,3.40
2017-09-16T01:01:51.267Z,3.20
2017-09-16T01:04:18.802Z,3.40
2017-09-16T01:06:46.372Z,3.00
2017-09-16T01:09:13.885Z,3.25
2017-09-16T01:11:43.101Z,3.60
2017-09-16T01:14:11.431Z,3.27
2017-09-16T01:16:39.018Z,3.07
2017-09-16T01:19:06.751Z,3.00
2017-09-16T01:21:34.243Z,3.33
2017-09-16T01:24:02.551Z,3.20
2017-09-16T01:26:30.943Z,3.33
2017-09-16T01:28:58.495Z,4.00
2017-09-16T01:31:26.402Z,4.47
2017-09-16T01:33:53.913Z,3.20
2017-09-16T01:36:21.476Z,3.43
2017-09-16T01:38:48.995Z,3.83
2017-09-16T01:41:16.532Z,3.28
2017-09-16T01:43:44.070Z,3.37
2017-09-16T01:46:11.645Z,4.10
2017-09-16T01:48:40.627Z,3.40
2017-09-16T01:51:08.184Z,3.10
2017-09-16T01:53:35.717Z,3.03
2017-09-16T01:56:06.362Z,3.17
2017-09-16T01:58:35.520Z,2.93
2017-09-16T02:01:03.067Z,3.07
2017-09-16T02:03:30.664Z,3.37
2017-09-16T02:05:58.908Z,2.40
2017-09-16T02:08:27.184Z,2.70
2017-09-16T02:10:58.327Z,2.67
2017-09-16T02:13:25.826Z,3.30
2017-09-16T02:15:53.380Z,2.63
2017-09-16T02:18:20.911Z,2.57
2017-09-16T02:20:49.211Z,3.03
2017-09-16T02:23:16.744Z,2.97
2017-09-16T02:25:44.611Z,3.15
2017-09-16T02:28:12.399Z,2.17
2017-09-16T02:30:39.890Z,3.47
2017-09-16T02:33:08.090Z,3.03
2017-09-16T02:35:36.630Z,3.07
2017-09-16T02:38:04.188Z,3.93
2017-09-16T02:40:32.511Z,3.37
2017-09-16T02:43:04.458Z,3.65
2017-09-16T02:45:31.977Z,2.80
2017-09-16T02:47:59.499Z,3.12
2017-09-16T02:50:27.574Z,3.36
2017-09-16T02:52:55.174Z,3.10
2017-09-16T02:55:22.711Z,2.70
2017-09-16T02:57:53.150Z,3.00
2017-09-16T03:00:20.708Z,2.97
2017-09-16T03:02:48.217Z,3.10
2017-09-16T03:05:17.479Z,3.20
2017-09-16T03:07:45.022Z,3.40
2017-09-16T03:10:12.527Z,3.80
2017-09-16T03:12:40.142Z,3.40
2017-09-16T03:15:07.865Z,3.97
2017-09-16T03:17:36.338Z,4.00
2017-09-16T03:20:04.354Z,3.90
2017-09-16T03:22:31.850Z,3.53
2017-09-16T03:24:59.395Z,4.22
2017-09-16T03:27:31.203Z,3.87
2017-09-16T03:29:58.706Z,3.50
2017-09-16T03:32:26.251Z,3.60
2017-09-16T03:34:53.916Z,4.00
2017-09-16T03:37:21.427Z,3.83
2017-09-16T03:39:48.959Z,4.27
2017-09-16T03:42:20.060Z,4.10
2017-09-16T03:44:47.679Z,4.93
2017-09-16T03:47:15.948Z,3.30
2017-09-16T03:49:43.544Z,3.60
2017-09-16T03:52:11.851Z,4.00
2017-09-16T03:54:40.400Z,4.37
2017-09-16T03:57:07.920Z,4.30
2017-09-16T03:59:35.495Z,4.03
2017-09-16T04:02:16.703Z,4.07
2017-09-16T04:04:44.972Z,3.70
2017-09-16T04:07:12.468Z,3.60
2017-09-16T04:09:40.346Z,4.00
2017-09-16T04:12:07.967Z,3.70
2017-09-16T04:14:43.380Z,3.85
2017-09-16T04:17:10.900Z,3.50
2017-09-16T04:19:38.409Z,3.70
2017-09-16T04:22:06.840Z,4.65
2017-09-16T04:24:34.352Z,4.50
2017-09-16T04:27:01.869Z,4.40
2017-09-16T04:29:29.370Z,3.75
2017-09-16T04:31:57.165Z,4.23
2017-09-16T04:34:25.752Z,4.90
2017-09-16T04:36:53.409Z,4.10
2017-09-16T04:39:20.946Z,4.43
2017-09-16T04:41:48.647Z,4.57
2017-09-16T04:44:23.350Z,4.77
2017-09-16T04:46:51.730Z,3.67
2017-09-16T04:49:19.412Z,5.00
2017-09-16T04:51:46.965Z,5.20
2017-09-16T04:54:14.526Z,4.75
2017-09-16T04:56:42.032Z,4.87
2017-09-16T04:59:13.236Z,5.25
2017-09-16T05:01:40.747Z,5.77
2017-09-16T05:04:09.111Z,5.90
2017-09-16T05:06:36.639Z,5.53
2017-09-16T05:09:05.101Z,4.62
2017-09-16T05:11:32.881Z,4.17
2017-09-16T05:14:04.216Z,4.97
2017-09-16T05:16:32.643Z,5.80
2017-09-16T05:19:00.194Z,4.70
2017-09-16T05:21:27.830Z,6.17
2017-09-16T05:23:55.344Z,6.70
2017-09-16T05:26:23.650Z,5.43
2017-09-16T05:28:55.699Z,4.13
2017-09-16T05:31:23.249Z,5.22
2017-09-16T05:33:51.655Z,4.95
2017-09-16T05:36:20.543Z,4.97
2017-09-16T05:38:48.389Z,4.57
2017-09-16T05:41:15.936Z,4.60
2017-09-16T05:43:44.106Z,4.47
2017-09-16T05:46:12.043Z,5.07
2017-09-16T05:48:39.924Z,4.90
2017-09-16T05:51:09.964Z,5.07
2017-09-16T05:53:37.757Z,4.97
2017-09-16T05:56:06.048Z,5.03
2017-09-16T05:58:33.639Z,5.85
2017-09-16T06:01:01.531Z,5.30
2017-09-16T06:03:29.079Z,4.95
2017-09-16T06:05:57.345Z,5.17
2017-09-16T06:08:24.880Z,5.50
2017-09-16T06:10:52.708Z,4.70
2017-09-16T06:13:20.215Z,5.70
2017-09-16T06:15:51.831Z,4.10
2017-09-16T06:18:19.366Z,5.30
2017-09-16T06:20:47.958Z,4.87
2017-09-16T06:23:15.480Z,5.50
2017-09-16T06:25:43.048Z,5.65
2017-09-16T06:28:10.618Z,4.18
2017-09-16T06:30:38.943Z,3.00
2017-09-16T06:33:07.823Z,3.40
2017-09-16T06:35:35.400Z,4.50
2017-09-16T06:38:02.940Z,5.50
2017-09-16T06:40:30.477Z,5.18
2017-09-16T06:42:58.271Z,4.80
2017-09-16T06:45:26.816Z,4.20
2017-09-16T06:47:54.379Z,5.80
2017-09-16T06:50:22.651Z,4.62
2017-09-16T06:52:51.001Z,5.40
2017-09-16T06:55:18.543Z,4.67
2017-09-16T06:57:46.075Z,5.83
2017-09-16T07:00:13.580Z,5.43
2017-09-16T07:02:41.879Z,4.87
2017-09-16T07:05:09.911Z,4.65
2017-09-16T07:07:37.419Z,4.20
2017-09-16T07:10:04.919Z,4.93
2017-09-16T07:12:32.438Z,4.80
2017-09-16T07:14:59.935Z,5.33
2017-09-16T07:17:30.688Z,4.62
2017-09-16T07:19:59.897Z,5.15
2017-09-16T07:22:27.432Z,5.30
2017-09-16T07:24:54.966Z,4.43
2017-09-16T07:27:22.462Z,6.30
2017-09-16T07:29:49.978Z,5.07
2017-09-16T07:32:17.808Z,6.23
2017-09-16T07:34:46.225Z,6.63
2017-09-16T07:37:13.937Z,4.93
2017-09-16T07:39:41.466Z,5.00
2017-09-16T07:42:09.272Z,6.10
2017-09-16T07:44:38.651Z,7.50
2017-09-16T07:47:10.484Z,6.40
2017-09-16T07:49:38.293Z,4.95
2017-09-16T07:52:07.476Z,5.37
2017-09-16T07:54:35.062Z,5.87
2017-09-16T07:57:03.289Z,3.62
2017-09-16T07:59:30.801Z,5.30
2017-09-16T08:02:02.661Z,5.47
2017-09-16T08:04:30.936Z,6.07
2017-09-16T08:06:58.446Z,5.23
2017-09-16T08:09:25.983Z,6.30
2017-09-16T08:11:53.525Z,5.70
2017-09-16T08:14:21.832Z,5.20
2017-09-16T08:16:49.419Z,4.70
2017-09-16T08:19:17.135Z,6.10
2017-09-16T08:21:44.649Z,5.35
2017-09-16T08:24:12.446Z,5.70
2017-09-16T08:26:39.953Z,5.10
2017-09-16T08:29:07.478Z,5.13
2017-09-16T08:31:35.028Z,5.20
2017-09-16T08:34:02.547Z,5.70
2017-09-16T08:36:30.056Z,5.15
2017-09-16T08:38:57.615Z,5.40
2017-09-16T08:41:26.448Z,5.28
2017-09-16T08:43:53.988Z,5.70
2017-09-16T08:46:22.638Z,5.60
2017-09-16T08:48:50.167Z,5.18
2017-09-16T08:51:18.589Z,5.23
2017-09-16T08:53:46.093Z,5.78
2017-09-16T08:56:13.944Z,5.30
2017-09-16T08:58:41.452Z,5.90
2017-09-16T09:01:09.051Z,5.93
2017-09-16T09:03:40.486Z,5.23
2017-09-16T09:06:07.984Z,4.80
2017-09-16T09:08:35.562Z,7.37
2017-09-16T09:11:05.170Z,5.30
2017-09-16T09:13:32.675Z,5.17
2017-09-16T09:16:00.233Z,4.60
2017-09-16T09:18:27.796Z,5.72
2017-09-16T09:20:55.324Z,5.07
2017-09-16T09:23:23.536Z,4.80
2017-09-16T09:25:51.039Z,4.30
2017-09-16T09:28:18.676Z,4.90
2017-09-16T09:30:46.207Z,5.90
2017-09-16T09:33:13.732Z,5.37
2017-09-16T09:35:42.178Z,5.25
2017-09-16T09:38:09.795Z,5.60
2017-09-16T09:40:37.303Z,6.30
2017-09-16T09:43:04.860Z,7.10
2017-09-16T09:45:32.683Z,5.87
2017-09-16T09:48:00.229Z,6.03
2017-09-16T09:50:27.855Z,5.72
2017-09-16T09:52:58.039Z,5.90
2017-09-16T09:55:27.073Z,6.13
2017-09-16T09:57:54.610Z,6.93
2017-09-16T10:00:22.120Z,5.70
2017-09-16T10:02:49.622Z,6.45
2017-09-16T10:05:17.226Z,5.72
2017-09-16T10:07:44.735Z,5.93
2017-09-16T10:10:12.244Z,4.77
2017-09-16T10:12:40.279Z,5.05
2017-09-16T10:15:07.821Z,5.23
2017-09-16T10:17:35.455Z,5.70
2017-09-16T10:20:02.958Z,5.10
2017-09-16T10:22:30.456Z,6.00
2017-09-16T10:24:59.688Z,5.85
2017-09-16T10:27:28.153Z,5.80
2017-09-16T10:29:55.696Z,5.37
2017-09-16T10:32:24.747Z,5.90
2017-09-16T10:34:52.315Z,4.45
2017-09-16T10:37:19.817Z,4.50
2017-09-16T10:39:49.058Z,5.07
2017-09-16T10:42:16.645Z,5.60
2017-09-16T10:44:44.899Z,4.53
2017-09-16T10:47:14.165Z,5.00
2017-09-16T10:49:44.732Z,4.50
2017-09-16T10:52:12.270Z,4.53
2017-09-16T10:54:39.870Z,4.70
2017-09-16T10:57:07.399Z,7.07
2017-09-16T10:59:34.976Z,5.80
2017-09-16T11:02:04.217Z,4.78
2017-09-16T11:04:34.944Z,5.60
2017-09-16T11:07:02.454Z,4.87
2017-09-16T11:09:30.017Z,5.50
2017-09-16T11:11:58.323Z,5.10
2017-09-16T11:14:26.597Z,4.30
2017-09-16T11:16:54.147Z,4.80
2017-09-16T11:19:23.051Z,3.75
2017-09-16T11:21:50.562Z,3.60
2017-09-16T11:24:18.718Z,4.20
2017-09-16T11:26:47.171Z,3.62
2017-09-16T11:29:14.786Z,4.57
2017-09-16T11:31:42.287Z,3.70
2017-09-16T11:34:09.846Z,3.70
2017-09-16T11:36:37.391Z,4.20
2017-09-16T11:39:04.895Z,3.37
2017-09-16T11:41:32.438Z,3.90
2017-09-16T11:44:00.729Z,3.30
2017-09-16T11:46:28.274Z,2.87
2017-09-16T11:48:55.776Z,3.50
2017-09-16T11:51:23.340Z,3.70
2017-09-16T11:53:51.923Z,3.60
2017-09-16T11:56:21.051Z,3.40
2017-09-16T11:58:49.383Z,4.22
2017-09-16T12:01:17.500Z,2.67
2017-09-16T12:03:45.081Z,3.17
2017-09-16T12:06:15.504Z,3.92
2017-09-16T12:08:43.011Z,3.22
2017-09-16T12:11:10.612Z,3.47
2017-09-16T12:13:38.118Z,2.37
2017-09-16T12:16:05.630Z,3.13
2017-09-16T12:18:34.295Z,2.32
2017-09-16T12:21:06.087Z,2.30
2017-09-16T12:23:35.180Z,2.50
2017-09-16T12:26:02.762Z,1.42
2017-09-16T12:28:30.402Z,2.03
2017-09-16T12:30:58.828Z,2.00
2017-09-16T12:33:27.309Z,1.75
2017-09-16T12:35:59.018Z,2.67
2017-09-16T12:38:26.651Z,2.00
2017-09-16T12:40:55.236Z,2.50
2017-09-16T12:43:22.741Z,2.63
2017-09-16T12:45:50.472Z,2.23
2017-09-16T12:48:19.667Z,2.10
2017-09-16T12:50:47.227Z,2.47
2017-09-16T12:53:14.776Z,1.60
2017-09-16T12:55:44.107Z,1.95
2017-09-16T12:58:11.603Z,2.00
2017-09-16T13:00:39.140Z,3.73
2017-09-16T13:03:06.692Z,4.75
2017-09-16T13:05:34.726Z,2.37
2017-09-16T13:08:05.879Z,2.12
2017-09-16T13:10:33.420Z,1.70
2017-09-16T13:13:01.712Z,1.50
2017-09-16T13:15:29.256Z,1.47
2017-09-16T13:17:58.447Z,1.87
2017-09-16T13:20:26.235Z,2.33
2017-09-16T13:22:53.812Z,2.63
2017-09-16T13:25:23.313Z,1.95
2017-09-16T13:27:50.860Z,2.13
2017-09-16T13:30:18.406Z,1.57
2017-09-16T13:32:46.259Z,1.57
2017-09-16T13:35:13.782Z,1.90
2017-09-16T13:37:45.559Z,1.35
2017-09-16T13:40:13.071Z,1.10
2017-09-16T13:42:40.632Z,1.07
2017-09-16T13:45:08.140Z,0.70
2017-09-16T13:47:36.620Z,0.90
2017-09-16T13:50:04.458Z,1.20
2017-09-16T13:52:40.103Z,0.70
2017-09-16T13:55:10.957Z,1.00
2017-09-16T13:57:38.459Z,0.90
2017-09-16T14:00:06.011Z,0.80
2017-09-16T14:02:34.287Z,1.20
2017-09-16T14:05:01.884Z,0.90
2017-09-16T14:07:29.384Z,0.87
2017-09-16T14:10:01.062Z,0.70
2017-09-16T14:12:28.561Z,0.80
2017-09-16T14:14:57.007Z,1.17
2017-09-16T14:17:24.508Z,1.10
2017-09-16T14:19:52.051Z,1.27
2017-09-16T14:22:19.570Z,1.10
2017-09-16T14:24:50.355Z,1.00
2017-09-16T14:27:17.949Z,1.30
2017-09-16T14:29:46.399Z,1.10
2017-09-16T14:32:13.942Z,0.90
2017-09-16T14:34:41.630Z,0.90
2017-09-16T14:37:09.126Z,0.98
2017-09-16T14:39:40.815Z,1.63
2017-09-16T14:42:08.315Z,1.53
2017-09-16T14:44:36.670Z,13.40
2017-09-16T14:47:04.186Z,8.15
2017-09-16T14:49:32.493Z,3.30
2017-09-16T14:52:01.478Z,1.92
2017-09-16T14:54:33.128Z,1.30
2017-09-16T14:57:01.308Z,1.12
2017-09-16T14:59:29.108Z,1.83
2017-09-16T15:01:56.611Z,1.40
2017-09-16T15:04:24.150Z,1.95
2017-09-16T15:06:51.691Z,1.80
2017-09-16T15:09:23.816Z,1.98
2017-09-16T15:11:51.349Z,1.60
2017-09-16T15:14:19.660Z,3.20
2017-09-16T15:16:47.159Z,2.28
2017-09-16T15:19:15.187Z,1.70
2017-09-16T15:21:43.196Z,1.90
2017-09-16T15:24:10.692Z,1.98
2017-09-16T15:26:38.238Z,1.97
2017-09-16T15:29:05.804Z,2.97
2017-09-16T15:31:34.055Z,5.40
2017-09-16T15:34:02.056Z,8.68
2017-09-16T15:36:29.852Z,3.45
2017-09-16T15:39:07.729Z,2.20
2017-09-16T15:41:35.274Z,4.00
2017-09-16T15:44:03.540Z,9.50
2017-09-16T15:46:31.955Z,1.87
2017-09-16T15:48:59.976Z,4.50
2017-09-16T15:51:27.481Z,4.50
2017-09-16T15:53:55.047Z,1.83
2017-09-16T15:56:22.572Z,1.87
2017-09-16T15:58:50.168Z,2.57
2017-09-16T16:01:17.940Z,1.40
2017-09-16T16:03:45.506Z,3.05
2017-09-16T16:06:13.701Z,2.35
2017-09-16T16:08:41.246Z,2.72
2017-09-16T16:11:08.815Z,2.00
2017-09-16T16:13:36.446Z,1.95
2017-09-16T16:16:04.011Z,1.60
2017-09-16T16:18:31.912Z,2.03
2017-09-16T16:20:59.494Z,2.10
2017-09-16T16:23:28.323Z,3.00
2017-09-16T16:25:55.843Z,4.28
2017-09-16T16:28:23.375Z,2.50
2017-09-16T16:30:51.808Z,2.40
2017-09-16T16:33:19.350Z,2.53
2017-09-16T16:35:46.846Z,2.40
2017-09-16T16:38:14.409Z,2.77
2017-09-16T16:40:41.915Z,5.23
2017-09-16T16:43:11.129Z,2.43
2017-09-16T16:45:38.962Z,3.30
2017-09-16T16:48:07.282Z,3.20
2017-09-16T16:50:35.744Z,2.70
2017-09-16T16:53:03.266Z,2.20
2017-09-16T16:55:35.816Z,2.77
2017-09-16T16:58:03.340Z,4.10
2017-09-16T17:00:30.900Z,4.07
2017-09-16T17:02:58.444Z,3.60
2017-09-16T17:05:25.949Z,3.50
2017-09-16T17:07:53.975Z,3.17
2017-09-16T17:10:21.471Z,4.85
2017-09-16T17:12:49.303Z,3.53
2017-09-16T17:15:17.706Z,3.70
2017-09-16T17:17:45.239Z,3.70
2017-09-16T17:20:12.926Z,3.43
2017-09-16T17:22:41.292Z,4.10
2017-09-16T17:25:09.888Z,3.92
2017-09-16T17:27:37.415Z,3.73
2017-09-16T17:30:05.735Z,4.13
2017-09-16T17:32:34.352Z,3.95
2017-09-16T17:35:01.911Z,4.00
2017-09-16T17:37:29.421Z,3.70
2017-09-16T17:39:56.934Z,3.47
2017-09-16T17:42:24.489Z,3.30
2017-09-16T17:44:52.918Z,3.80
2017-09-16T17:47:20.428Z,5.15
2017-09-16T17:49:47.956Z,6.20
2017-09-16T17:52:15.493Z,5.10
2017-09-16T17:54:42.995Z,4.90
2017-09-16T17:57:10.530Z,4.47
2017-09-16T17:59:38.239Z,4.33
2017-09-16T18:02:07.217Z,6.94
2017-09-16T18:04:34.719Z,7.33
2017-09-16T18:07:02.579Z,4.50
2017-09-16T18:09:31.781Z,4.57
2017-09-16T18:11:59.323Z,5.35
2017-09-16T18:14:27.602Z,3.05
2017-09-16T18:16:56.591Z,3.85
2017-09-16T18:19:24.155Z,5.17
2017-09-16T18:21:51.719Z,5.50
2017-09-16T18:24:19.299Z,5.68
2017-09-16T18:26:48.553Z,5.57
2017-09-16T18:29:16.060Z,5.60
2017-09-16T18:31:43.641Z,5.60
2017-09-16T18:34:11.143Z,4.78
2017-09-16T18:36:38.678Z,5.17
2017-09-16T18:39:06.228Z,5.43
2017-09-16T18:41:35.147Z,7.66
2017-09-16T18:44:03.421Z,6.60
2017-09-16T18:46:31.006Z,7.00
2017-09-16T18:48:59.979Z,7.07
2017-09-16T18:51:27.790Z,6.77
2017-09-16T18:53:55.353Z,5.80
2017-09-16T18:56:23.807Z,5.97
2017-09-16T18:58:52.285Z,5.43
2017-09-16T19:01:19.831Z,6.23
2017-09-16T19:03:49.068Z,6.50
2017-09-16T19:06:16.586Z,6.77
2017-09-16T19:08:44.907Z,5.00
2017-09-16T19:11:13.338Z,7.77
2017-09-16T19:13:41.623Z,7.30
2017-09-16T19:16:09.169Z,8.23
2017-09-16T19:18:38.407Z,8.63
2017-09-16T19:21:06.013Z,8.77
2017-09-16T19:23:33.920Z,15.53
2017-09-16T19:26:02.282Z,8.13
2017-09-16T19:28:36.985Z,6.50
2017-09-16T19:31:04.520Z,7.13
2017-09-16T19:33:32.055Z,6.45
2017-09-16T19:35:59.622Z,6.00
2017-09-16T19:38:31.023Z,6.15
2017-09-16T19:40:58.673Z,6.23
2017-09-16T19:43:30.789Z,5.80
2017-09-16T19:45:58.860Z,6.53
2017-09-16T19:48:26.379Z,6.90
2017-09-16T19:50:53.895Z,6.80
2017-09-16T19:53:21.487Z,7.30
2017-09-16T19:55:49.022Z,6.73
2017-09-16T19:58:16.528Z,7.57
2017-09-16T20:00:44.819Z,7.18
2017-09-16T20:03:12.547Z,7.07
2017-09-16T20:05:40.163Z,6.53
2017-09-16T20:08:07.831Z,5.80
2017-09-16T20:10:35.855Z,5.57
2017-09-16T20:13:03.411Z,5.95
2017-09-16T20:15:31.312Z,7.10
2017-09-16T20:17:59.178Z,6.65
2017-09-16T20:20:26.699Z,7.57
2017-09-16T20:22:54.990Z,7.57
2017-09-16T20:25:22.548Z,8.15
2017-09-16T20:27:50.745Z,8.35
2017-09-16T20:30:18.255Z,9.70
2017-09-16T20:32:45.798Z,7.60
2017-09-16T20:35:13.291Z,7.93
2017-09-16T20:37:40.788Z,7.53
2017-09-16T20:40:08.368Z,7.70
2017-09-16T20:42:35.899Z,6.53
2017-09-16T20:45:05.053Z,7.93
2017-09-16T20:47:32.591Z,7.80
2017-09-16T20:50:00.212Z,9.73
2017-09-16T20:52:27.721Z,8.55
2017-09-16T20:54:56.024Z,9.07
2017-09-16T20:57:24.341Z,7.30
2017-09-16T20:59:56.112Z,8.70
2017-09-16T21:02:24.084Z,7.45
2017-09-16T21:04:51.626Z,8.50
2017-09-16T21:07:20.243Z,7.90
2017-09-16T21:09:49.274Z,8.65
2017-09-16T21:12:16.824Z,8.63
2017-09-16T21:14:45.093Z,10.23
2017-09-16T21:17:13.787Z,10.35
2017-09-16T21:19:41.338Z,9.63
2017-09-16T21:22:09.642Z,8.70
2017-09-16T21:24:38.935Z,13.30
2017-09-16T21:27:06.449Z,9.37
2017-09-16T21:29:34.012Z,9.90
2017-09-16T21:32:03.213Z,9.27
2017-09-16T21:34:31.174Z,9.13
2017-09-16T21:36:58.727Z,7.47
2017-09-16T21:39:26.250Z,8.77
2017-09-16T21:41:53.760Z,9.63
2017-09-16T21:44:22.597Z,9.82
2017-09-16T21:46:50.322Z,10.20
2017-09-16T21:49:18.129Z,11.20
2017-09-16T21:51:47.077Z,10.20
2017-09-16T21:54:15.394Z,11.07
2017-09-16T21:56:43.901Z,10.48
2017-09-16T21:59:11.543Z,10.63
2017-09-16T22:01:39.050Z,9.93
2017-09-16T22:04:06.607Z,9.13
2017-09-16T22:06:34.164Z,9.50
2017-09-16T22:09:02.434Z,9.07
2017-09-16T22:11:31.199Z,11.07
2017-09-16T22:13:59.686Z,10.18
2017-09-16T22:16:35.325Z,9.73
2017-09-16T22:19:02.872Z,9.57
2017-09-16T22:21:31.298Z,8.47
2017-09-16T22:24:00.316Z,10.45
2017-09-16T22:26:28.095Z,10.65
2017-09-16T22:28:56.326Z,8.55
2017-09-16T22:31:23.831Z,9.07
2017-09-16T22:33:51.375Z,9.90
2017-09-16T22:36:18.897Z,10.40
2017-09-16T22:38:46.451Z,9.27
2017-09-16T22:41:14.051Z,9.07
2017-09-16T22:43:41.547Z,6.72
2017-09-16T22:46:13.173Z,7.57
2017-09-16T22:48:40.676Z,8.43
2017-09-16T22:51:08.559Z,8.85
2017-09-16T22:53:36.076Z,9.10
2017-09-16T22:56:04.648Z,7.37
2017-09-16T22:58:32.214Z,7.97
2017-09-16T23:00:59.724Z,8.17
2017-09-16T23:03:27.236Z,8.07
2017-09-16T23:05:54.781Z,7.10
2017-09-16T23:08:22.297Z,7.87
2017-09-16T23:10:49.947Z,7.40
2017-09-16T23:13:17.485Z,7.87
2017-09-16T23:15:45.064Z,7.57
2017-09-16T23:18:13.102Z,8.55
2017-09-16T23:20:40.621Z,7.77
2017-09-16T23:23:08.291Z,8.60
2017-09-16T23:25:36.304Z,7.70
2017-09-16T23:28:04.115Z,8.13
2017-09-16T23:30:32.072Z,6.80
2017-09-16T23:32:59.807Z,8.17
2017-09-16T23:35:27.359Z,8.57
2017-09-16T23:37:54.880Z,7.75
2017-09-16T23:40:23.165Z,8.13
2017-09-16T23:42:51.641Z,7.40
2017-09-16T23:45:19.954Z,8.40
2017-09-16T23:47:47.451Z,8.98
2017-09-16T23:50:16.686Z,8.42
2017-09-16T23:52:44.466Z,7.57
2017-09-16T23:55:12.171Z,7.10
2017-09-16T23:57:39.704Z,6.83
